イルクーツク の空港の天気 - METARとTAF

イルクーツク国際空港 ( UIII / IKT ) - ロシア イルクーツク
飛行場実況気象(Metar)
観測時間02/17 22:30 IRKT (02/17 14:30 UTC)
風向・風速南 2m/s
視程10km以上
天気現象
なし
気温-14℃
湿度72%
気圧1014hPa
METARUIII 171430Z 18002MPS CAVOK M14/M18 Q1014 R30/CLRD60 NOSIG RMK QFE716/0955
過去の天気等 Google飛行場航空写真 Wunderground天気予報

過去48時間のMETAR

飛行場予報(TAF)
発表時間: 2/17 22:00 IRKT (2/17 14:00 UTC)
予報対象時間: 17日23時 IRKT ~ 18日23時 IRKT
風向・風速南南東 3m/s
視程10km以上
なし
TAF UIII 171400Z 1715/1815 16003MPS CAVOK